createdAt,value
2022-07-26T00:01:58.433Z,99064.34
2022-07-26T00:04:26.248Z,99059.81
2022-07-26T00:06:53.790Z,99054.69
2022-07-26T00:09:21.326Z,99055.16
2022-07-26T00:11:49.118Z,99053.47
2022-07-26T00:14:16.638Z,99050.50
2022-07-26T00:16:44.201Z,99050.72
2022-07-26T00:19:12.194Z,99042.75
2022-07-26T00:21:40.615Z,99039.16
2022-07-26T00:24:09.157Z,99043.81
2022-07-26T00:26:37.473Z,99039.38
2022-07-26T00:29:06.025Z,99028.88
2022-07-26T00:31:33.917Z,99027.44
2022-07-26T00:34:01.761Z,99027.34
2022-07-26T00:36:29.853Z,99034.13
2022-07-26T00:38:57.362Z,99027.56
2022-07-26T00:41:25.118Z,99029.84
2022-07-26T00:43:57.316Z,99029.81
2022-07-26T00:46:25.284Z,99029.25
2022-07-26T00:48:52.925Z,99034.50
2022-07-26T00:51:21.322Z,99028.03
2022-07-26T00:53:49.438Z,99023.91
2022-07-26T00:56:17.476Z,99016.75
2022-07-26T00:58:45.037Z,99025.56
2022-07-26T01:01:12.975Z,99020.84
2022-07-26T01:03:40.521Z,99011.84
2022-07-26T01:06:08.790Z,99009.94
2022-07-26T01:08:36.803Z,99001.81
2022-07-26T01:11:04.387Z,98997.47
2022-07-26T01:13:35.267Z,99000.06
2022-07-26T01:16:04.000Z,98994.81
2022-07-26T01:18:31.589Z,98993.47
2022-07-26T01:21:00.918Z,98997.53
2022-07-26T01:23:29.004Z,98991.62
2022-07-26T01:25:59.678Z,98994.75
2022-07-26T01:28:27.984Z,98989.25
2022-07-26T01:30:55.860Z,98986.41
2022-07-26T01:33:23.324Z,98988.44
2022-07-26T01:35:50.829Z,98982.25
2022-07-26T01:38:18.651Z,98975.28
2022-07-26T01:40:46.225Z,98968.03
2022-07-26T01:43:13.747Z,98964.69
2022-07-26T01:45:41.721Z,98964.09
2022-07-26T01:48:09.340Z,98961.16
2022-07-26T01:50:38.401Z,98965.28
2022-07-26T01:53:06.553Z,98968.53
2022-07-26T01:55:35.083Z,98964.22
2022-07-26T01:58:05.247Z,98960.50
2022-07-26T02:00:34.154Z,98957.63
2022-07-26T02:03:02.118Z,98956.44
2022-07-26T02:05:29.906Z,98956.19
2022-07-26T02:07:57.389Z,98958.66
2022-07-26T02:10:45.714Z,98966.31
2022-07-26T02:13:14.959Z,98951.19
2022-07-26T02:15:42.793Z,98963.69
2022-07-26T02:18:10.296Z,98964.63
2022-07-26T02:20:37.869Z,98966.28
2022-07-26T02:23:05.746Z,98969.81
2022-07-26T02:25:33.342Z,98966.69
2022-07-26T02:28:01.629Z,98970.09
2022-07-26T02:30:29.467Z,98975.00
2022-07-26T02:32:57.033Z,98969.72
2022-07-26T02:35:24.514Z,98964.72
2022-07-26T02:37:52.404Z,98969.12
2022-07-26T02:40:19.887Z,98964.25
2022-07-26T02:42:47.402Z,98976.94
2022-07-26T02:45:15.173Z,98977.88
2022-07-26T02:47:50.397Z,98973.47
2022-07-26T02:50:19.121Z,98965.81
2022-07-26T02:52:48.217Z,98965.16
2022-07-26T02:55:17.339Z,98960.97
2022-07-26T02:57:46.156Z,98960.34
2022-07-26T03:00:16.450Z,98964.31
2022-07-26T03:02:44.064Z,98967.97
2022-07-26T03:05:12.303Z,98963.25
2022-07-26T03:07:39.825Z,98967.28
2022-07-26T03:10:08.109Z,98971.78
2022-07-26T03:12:35.869Z,98967.00
2022-07-26T03:15:03.830Z,98970.34
2022-07-26T03:17:32.224Z,98969.22
2022-07-26T03:20:00.249Z,98963.87
2022-07-26T03:22:27.722Z,98975.84
2022-07-26T03:24:55.207Z,98978.41
2022-07-26T03:27:23.074Z,98975.94
2022-07-26T03:29:50.565Z,98978.50
2022-07-26T03:32:18.050Z,98971.50
2022-07-26T03:34:45.794Z,98973.78
2022-07-26T03:37:13.253Z,98971.19
2022-07-26T03:39:40.729Z,98969.97
2022-07-26T03:42:08.542Z,98962.81
2022-07-26T03:44:36.186Z,98975.22
2022-07-26T03:47:03.827Z,98966.84
2022-07-26T03:49:31.682Z,98956.59
2022-07-26T03:51:59.341Z,98952.00
2022-07-26T03:54:26.826Z,98955.94
2022-07-26T03:56:54.553Z,98960.12
2022-07-26T03:59:24.089Z,98958.41
2022-07-26T04:01:51.858Z,98943.88
2022-07-26T04:04:20.905Z,98947.81
2022-07-26T04:06:52.993Z,98938.09
2022-07-26T04:09:20.737Z,98939.88
2022-07-26T04:11:48.708Z,98939.31
2022-07-26T04:14:16.394Z,98934.75
2022-07-26T04:16:44.195Z,98933.34
2022-07-26T04:19:11.724Z,98931.84
2022-07-26T04:21:39.210Z,98936.47
2022-07-26T04:24:07.705Z,98940.63
2022-07-26T04:26:35.414Z,98933.59
2022-07-26T04:29:02.919Z,98933.34
2022-07-26T04:31:36.238Z,98935.75
2022-07-26T04:34:04.366Z,98962.34
2022-07-26T04:36:32.349Z,99004.00
2022-07-26T04:38:59.818Z,99071.37
2022-07-26T04:41:27.858Z,99045.31
2022-07-26T04:43:56.275Z,99026.22
2022-07-26T04:46:25.299Z,99032.25
2022-07-26T04:48:52.908Z,99026.00
2022-07-26T04:51:20.970Z,99029.81
2022-07-26T04:53:48.434Z,99020.28
2022-07-26T04:56:15.890Z,99008.25
2022-07-26T04:58:43.682Z,99022.56
2022-07-26T05:01:11.480Z,99013.22
2022-07-26T05:03:39.319Z,99013.72
2022-07-26T05:06:07.139Z,99013.13
2022-07-26T05:08:34.654Z,99010.87
2022-07-26T05:11:02.182Z,99001.31
2022-07-26T05:13:31.004Z,98998.56
2022-07-26T05:15:59.848Z,99006.62
2022-07-26T05:18:29.274Z,99007.97
2022-07-26T05:20:59.187Z,99008.88
2022-07-26T05:23:26.722Z,99010.41
2022-07-26T05:25:55.446Z,99014.59
2022-07-26T05:28:23.534Z,99010.84
2022-07-26T05:30:51.275Z,99006.59
2022-07-26T05:33:18.872Z,99010.69
2022-07-26T05:35:46.613Z,99007.88
2022-07-26T05:38:14.132Z,98999.66
2022-07-26T05:40:42.126Z,99002.69
2022-07-26T05:43:11.791Z,99000.59
2022-07-26T05:45:39.424Z,99015.06
2022-07-26T05:48:07.270Z,99001.44
2022-07-26T05:50:35.011Z,99000.88
2022-07-26T05:53:02.597Z,99000.59
2022-07-26T05:55:30.086Z,99010.59
2022-07-26T05:57:57.842Z,99004.47
2022-07-26T06:00:26.093Z,98994.84
2022-07-26T06:02:53.888Z,98998.34
2022-07-26T06:05:21.394Z,98997.09
2022-07-26T06:07:48.889Z,98994.75
2022-07-26T06:10:16.650Z,99007.66
2022-07-26T06:12:44.183Z,99002.63
2022-07-26T06:15:15.718Z,99006.66
2022-07-26T06:17:43.804Z,99015.97
2022-07-26T06:20:11.706Z,99012.78
2022-07-26T06:22:39.252Z,99015.16
2022-07-26T06:25:07.549Z,99014.72
2022-07-26T06:27:34.998Z,99008.72
2022-07-26T06:30:02.472Z,99011.44
2022-07-26T06:32:30.422Z,99010.25
2022-07-26T06:34:57.890Z,99015.41
2022-07-26T06:37:25.829Z,99012.56
2022-07-26T06:39:53.629Z,99006.34
2022-07-26T06:42:21.186Z,99009.34
2022-07-26T06:44:48.697Z,99000.38
2022-07-26T06:47:16.567Z,99003.97
2022-07-26T06:49:44.871Z,99000.25
2022-07-26T06:52:12.387Z,99005.28
2022-07-26T06:54:40.168Z,98992.53
2022-07-26T06:57:07.950Z,99000.22
2022-07-26T06:59:35.514Z,98996.31
2022-07-26T07:02:04.475Z,98993.03
2022-07-26T07:04:32.807Z,98990.31
2022-07-26T07:07:06.099Z,98987.00
2022-07-26T07:09:35.999Z,98977.69
2022-07-26T07:12:10.348Z,98994.22
2022-07-26T07:14:39.192Z,98984.41
2022-07-26T07:17:12.247Z,98980.31
2022-07-26T07:19:41.861Z,98990.31
2022-07-26T07:22:12.336Z,98985.97
2022-07-26T07:24:40.937Z,98975.31
2022-07-26T07:27:10.403Z,98993.09
2022-07-26T07:29:38.792Z,98992.94
2022-07-26T07:32:18.297Z,98997.53
2022-07-26T07:34:50.959Z,98998.47
2022-07-26T07:37:20.233Z,98991.47
2022-07-26T07:39:50.025Z,98992.44
2022-07-26T07:42:19.626Z,98981.59
2022-07-26T07:44:47.583Z,98995.87
2022-07-26T07:47:15.124Z,99003.44
2022-07-26T07:49:43.148Z,98999.22
2022-07-26T07:52:10.893Z,98997.13
2022-07-26T07:54:38.329Z,99008.81
2022-07-26T07:57:05.812Z,99023.75
2022-07-26T07:59:33.691Z,99019.75
2022-07-26T08:02:06.958Z,99021.50
2022-07-26T08:04:35.000Z,99036.53
2022-07-26T08:07:02.574Z,99022.00
2022-07-26T08:09:30.054Z,99029.25
2022-07-26T08:12:02.821Z,99018.94
2022-07-26T08:14:30.343Z,99008.25
2022-07-26T08:16:58.071Z,99009.31
2022-07-26T08:19:26.478Z,99012.97
2022-07-26T08:22:08.755Z,99008.00
2022-07-26T08:24:36.712Z,99013.81
2022-07-26T08:27:04.509Z,99022.84
2022-07-26T08:29:32.075Z,99015.22
2022-07-26T08:31:59.856Z,99017.59
2022-07-26T08:34:27.383Z,99012.31
2022-07-26T08:37:16.115Z,99009.97
2022-07-26T08:39:42.643Z,99008.31
2022-07-26T08:42:15.109Z,99005.16
2022-07-26T08:44:47.259Z,99010.66
2022-07-26T08:47:16.752Z,99002.91
2022-07-26T08:50:03.483Z,98989.03
2022-07-26T08:52:31.113Z,98995.63
2022-07-26T08:54:58.717Z,99000.63
2022-07-26T08:57:26.505Z,99000.66
2022-07-26T09:00:15.819Z,99005.38
2022-07-26T09:02:43.811Z,99004.59
2022-07-26T09:05:11.672Z,99010.25
2022-07-26T09:07:41.056Z,99018.63
2022-07-26T09:10:11.045Z,99021.47
2022-07-26T09:12:39.383Z,99032.47
2022-07-26T09:15:16.910Z,99038.78
2022-07-26T09:17:46.950Z,99042.75
2022-07-26T09:20:17.219Z,99050.56
2022-07-26T09:23:06.984Z,99065.47
2022-07-26T09:25:39.574Z,99068.47
2022-07-26T09:28:31.048Z,99086.69
2022-07-26T09:31:04.224Z,99096.31
2022-07-26T09:33:48.916Z,99124.00
2022-07-26T09:36:17.635Z,99148.03
2022-07-26T09:38:50.393Z,99153.28
2022-07-26T09:41:22.476Z,99178.97
2022-07-26T09:43:53.951Z,99170.03
2022-07-26T09:46:23.645Z,99158.03
2022-07-26T09:49:10.065Z,99120.38
2022-07-26T09:51:43.764Z,99126.19
2022-07-26T09:54:13.328Z,99135.22
2022-07-26T09:56:50.431Z,99160.13
2022-07-26T09:59:20.313Z,99167.84
2022-07-26T10:01:49.158Z,99162.59
2022-07-26T10:04:17.273Z,99126.81
2022-07-26T10:06:44.837Z,99100.66
2022-07-26T10:09:13.316Z,99114.69
2022-07-26T10:11:52.717Z,99113.91
2022-07-26T10:14:37.349Z,99116.94
2022-07-26T10:17:29.223Z,99141.75
2022-07-26T10:20:09.433Z,99163.37
2022-07-26T10:22:50.597Z,99159.81
2022-07-26T10:25:18.207Z,99149.06
2022-07-26T10:27:47.185Z,99163.31
2022-07-26T10:30:22.495Z,99174.34
2022-07-26T10:33:01.498Z,99177.78
2022-07-26T10:35:31.846Z,99176.59
2022-07-26T10:38:04.533Z,99179.41
2022-07-26T10:40:32.400Z,99176.88
2022-07-26T10:43:39.547Z,99169.16
2022-07-26T10:46:29.212Z,99168.41
2022-07-26T10:49:06.944Z,99185.41
2022-07-26T10:51:37.061Z,99174.34
2022-07-26T10:54:13.193Z,99174.25
2022-07-26T10:56:41.433Z,99181.28
2022-07-26T10:59:09.263Z,99184.34
2022-07-26T11:01:42.174Z,99195.91
2022-07-26T11:04:20.546Z,99193.59
2022-07-26T11:06:48.407Z,99190.88
2022-07-26T11:09:18.509Z,99187.75
2022-07-26T11:11:48.742Z,99175.22
2022-07-26T11:14:18.095Z,99180.34
2022-07-26T11:16:48.019Z,99189.44
2022-07-26T11:19:24.885Z,99178.41
2022-07-26T11:21:58.684Z,99176.81
2022-07-26T11:24:27.484Z,99168.34
2022-07-26T11:26:55.477Z,99173.81
2022-07-26T11:29:38.188Z,99170.53
2022-07-26T11:32:20.623Z,99175.97
2022-07-26T11:35:04.739Z,99179.81
2022-07-26T11:37:32.607Z,99180.69
2022-07-26T11:40:00.280Z,99178.28
2022-07-26T11:42:28.056Z,99175.28
2022-07-26T11:44:55.849Z,99173.97
2022-07-26T11:47:25.731Z,99170.34
2022-07-26T11:50:13.929Z,99167.44
2022-07-26T11:52:42.181Z,99178.28
2022-07-26T11:55:09.821Z,99169.75
2022-07-26T11:57:37.653Z,99166.53
2022-07-26T12:00:06.862Z,99179.28
2022-07-26T12:02:39.202Z,99184.91
2022-07-26T12:05:16.263Z,99176.59
2022-07-26T12:07:58.013Z,99176.16
2022-07-26T12:10:26.568Z,99180.56
2022-07-26T12:13:07.640Z,99173.16
2022-07-26T12:15:52.498Z,99161.03
2022-07-26T12:18:26.858Z,99165.78
2022-07-26T12:21:04.490Z,99154.66
2022-07-26T12:23:49.874Z,99151.25
2022-07-26T12:26:26.013Z,99153.97
2022-07-26T12:28:54.602Z,99149.41
2022-07-26T12:31:27.644Z,99157.03
2022-07-26T12:33:55.946Z,99151.09
2022-07-26T12:36:27.771Z,99153.28
2022-07-26T12:38:58.512Z,99162.13
2022-07-26T12:41:34.981Z,99162.34
2022-07-26T12:44:03.619Z,99174.25
2022-07-26T12:46:35.445Z,99179.00
2022-07-26T12:49:03.925Z,99175.22
2022-07-26T12:51:31.979Z,99162.41
2022-07-26T12:53:59.488Z,99166.56
2022-07-26T12:56:27.131Z,99156.09
2022-07-26T12:59:01.089Z,99150.44
2022-07-26T13:01:30.060Z,99143.38
2022-07-26T13:03:58.082Z,99143.53
2022-07-26T13:06:25.621Z,99141.16
2022-07-26T13:08:53.872Z,99136.97
2022-07-26T13:11:21.708Z,99137.00
2022-07-26T13:13:49.569Z,99139.34
2022-07-26T13:16:17.200Z,99144.09
2022-07-26T13:18:45.020Z,99142.38
2022-07-26T13:21:12.575Z,99144.72
2022-07-26T13:23:40.118Z,99157.22
2022-07-26T13:26:09.493Z,99155.72
2022-07-26T13:28:39.926Z,99153.53
2022-07-26T13:31:08.060Z,99160.31
2022-07-26T13:33:39.295Z,99160.38
2022-07-26T13:36:06.955Z,99154.63
2022-07-26T13:38:35.103Z,99148.37
2022-07-26T13:41:03.182Z,99152.25
2022-07-26T13:43:35.351Z,99154.25
2022-07-26T13:46:04.008Z,99149.09
2022-07-26T13:48:31.748Z,99148.81
2022-07-26T13:50:59.685Z,99163.94
2022-07-26T13:53:27.680Z,99164.72
2022-07-26T13:55:55.255Z,99166.78
2022-07-26T13:58:22.946Z,99159.34
2022-07-26T14:00:50.775Z,99173.22
2022-07-26T14:03:18.600Z,99182.44
2022-07-26T14:05:46.601Z,99179.22
2022-07-26T14:08:14.107Z,99181.59
2022-07-26T14:10:42.145Z,99182.31
2022-07-26T14:13:09.685Z,99177.66
2022-07-26T14:15:37.411Z,99175.97
2022-07-26T14:18:05.268Z,99170.97
2022-07-26T14:20:32.934Z,99162.47
2022-07-26T14:23:00.501Z,99166.78
2022-07-26T14:25:28.617Z,99173.97
2022-07-26T14:27:56.204Z,99164.47
2022-07-26T14:30:23.948Z,99170.84
2022-07-26T14:32:51.818Z,99179.75
2022-07-26T14:35:19.372Z,99169.06
2022-07-26T14:37:46.941Z,99177.91
2022-07-26T14:40:16.214Z,99170.25
2022-07-26T14:42:44.837Z,99167.12
2022-07-26T14:45:13.111Z,99165.59
2022-07-26T14:47:41.018Z,99162.94
2022-07-26T14:50:10.191Z,99171.69
2022-07-26T14:52:43.348Z,99167.25
2022-07-26T14:55:11.596Z,99169.63
2022-07-26T14:57:40.270Z,99162.13
2022-07-26T15:00:10.746Z,99163.06
2022-07-26T15:02:43.644Z,99166.66
2022-07-26T15:05:12.204Z,99161.75
2022-07-26T15:07:40.783Z,99150.47
2022-07-26T15:10:10.541Z,99153.75
2022-07-26T15:12:38.890Z,99153.25
2022-07-26T15:15:07.792Z,99148.50
2022-07-26T15:17:35.839Z,99148.28
2022-07-26T15:20:05.074Z,99138.75
2022-07-26T15:22:34.818Z,99142.41
2022-07-26T15:25:03.703Z,99151.53
2022-07-26T15:27:31.366Z,99139.16
2022-07-26T15:30:04.183Z,99136.06
2022-07-26T15:32:34.208Z,99131.97
2022-07-26T15:35:02.369Z,99135.28
2022-07-26T15:37:29.999Z,99133.13
2022-07-26T15:39:57.675Z,99122.59
2022-07-26T15:42:25.530Z,99132.63
2022-07-26T15:44:53.181Z,99121.62
2022-07-26T15:50:11.239Z,99126.09
2022-07-26T15:52:40.590Z,99131.63
2022-07-26T15:55:09.161Z,99124.94
2022-07-26T15:57:37.385Z,99130.66
2022-07-26T16:00:11.433Z,99121.62
2022-07-26T16:02:40.560Z,99127.91
2022-07-26T16:05:09.132Z,99126.69
2022-07-26T16:07:37.415Z,99121.25
2022-07-26T16:10:05.798Z,99121.84
2022-07-26T16:12:33.661Z,99115.19
2022-07-26T16:15:01.324Z,99117.16
2022-07-26T16:17:29.165Z,99130.00
2022-07-26T16:19:56.716Z,99116.66
2022-07-26T16:22:24.444Z,99121.25
2022-07-26T16:24:52.341Z,99131.28
2022-07-26T16:27:20.008Z,99134.25
2022-07-26T16:29:52.004Z,99136.03
2022-07-26T16:32:21.414Z,99136.53
2022-07-26T16:34:49.266Z,99141.06
2022-07-26T16:37:16.826Z,99145.00
2022-07-26T16:39:44.643Z,99148.59
2022-07-26T16:42:12.194Z,99139.87
2022-07-26T16:44:39.772Z,99135.81
2022-07-26T16:47:07.674Z,99136.97
2022-07-26T16:49:35.339Z,99135.78
2022-07-26T16:52:03.106Z,99134.63
2022-07-26T16:54:31.134Z,99134.72
2022-07-26T16:57:00.026Z,99139.28
2022-07-26T16:59:28.869Z,99139.63
2022-07-26T17:01:56.896Z,99140.56
2022-07-26T17:04:29.145Z,99133.19
2022-07-26T17:07:23.206Z,99138.44
2022-07-26T17:09:44.431Z,99136.19
2022-07-26T17:12:13.238Z,99138.63
2022-07-26T17:14:40.732Z,99149.44
2022-07-26T17:17:08.373Z,99147.87
2022-07-26T17:19:36.180Z,99148.97
2022-07-26T17:22:03.929Z,99162.47
2022-07-26T17:24:31.709Z,99145.34
2022-07-26T17:27:00.964Z,99149.19
2022-07-26T17:29:28.542Z,99152.59
2022-07-26T17:31:56.141Z,99156.09
2022-07-26T17:34:24.011Z,99142.63
2022-07-26T17:37:02.528Z,99155.34
2022-07-26T17:39:52.369Z,99154.69
2022-07-26T17:42:21.632Z,99152.53
2022-07-26T17:44:50.170Z,99154.56
2022-07-26T17:47:29.279Z,99153.13
2022-07-26T17:52:50.480Z,99163.41
2022-07-26T17:55:19.496Z,99159.06
2022-07-26T17:57:48.313Z,99167.06
2022-07-26T18:00:21.973Z,99169.16
2022-07-26T18:02:49.882Z,99173.19
2022-07-26T18:05:19.033Z,99172.13
2022-07-26T18:07:46.816Z,99170.59
2022-07-26T18:10:14.808Z,99168.66
2022-07-26T18:12:42.557Z,99171.97
2022-07-26T18:15:10.360Z,99175.12
2022-07-26T18:17:38.333Z,99171.44
2022-07-26T18:20:07.694Z,99179.88
2022-07-26T18:22:35.418Z,99163.47
2022-07-26T18:25:04.004Z,99162.41
2022-07-26T18:27:32.087Z,99164.28
2022-07-26T18:30:00.540Z,99164.25
2022-07-26T18:32:28.397Z,99161.75
2022-07-26T18:34:56.241Z,99166.28
2022-07-26T18:37:23.730Z,99172.38
2022-07-26T18:39:57.331Z,99180.34
2022-07-26T18:42:26.044Z,99174.06
2022-07-26T18:44:53.900Z,99179.94
2022-07-26T18:47:21.853Z,99180.41
2022-07-26T18:49:50.218Z,99193.47
2022-07-26T18:52:28.923Z,99192.19
2022-07-26T18:55:07.032Z,99196.25
2022-07-26T18:57:36.777Z,99203.53
2022-07-26T19:00:12.697Z,99207.22
2022-07-26T19:02:41.810Z,99202.13
2022-07-26T19:05:10.242Z,99202.03
2022-07-26T19:07:38.304Z,99205.34
2022-07-26T19:10:07.619Z,99203.06
2022-07-26T19:12:35.468Z,99209.69
2022-07-26T19:15:03.844Z,99208.84
2022-07-26T19:17:32.971Z,99209.19
2022-07-26T19:20:00.807Z,99217.09
2022-07-26T19:22:30.486Z,99206.00
2022-07-26T19:24:58.368Z,99218.94
2022-07-26T19:27:26.123Z,99207.56
2022-07-26T19:29:54.626Z,99208.31
2022-07-26T19:32:23.718Z,99210.84
2022-07-26T19:34:51.611Z,99225.81
2022-07-26T19:37:22.695Z,99228.34
2022-07-26T19:39:52.241Z,99222.69
2022-07-26T19:42:20.324Z,99222.16
2022-07-26T19:44:48.130Z,99219.72
2022-07-26T19:47:16.127Z,99218.63
2022-07-26T19:49:44.050Z,99219.97
2022-07-26T19:52:12.040Z,99224.94
2022-07-26T19:54:40.574Z,99219.72
2022-07-26T19:57:08.370Z,99215.03
2022-07-26T19:59:37.043Z,99224.50
2022-07-26T20:02:05.710Z,99228.31
2022-07-26T20:04:41.809Z,99218.53
2022-07-26T20:07:16.010Z,99232.06
2022-07-26T20:09:43.862Z,99230.97
2022-07-26T20:12:11.370Z,99230.47
2022-07-26T20:14:40.008Z,99230.63
2022-07-26T20:17:12.063Z,99221.63
2022-07-26T20:19:41.212Z,99228.31
2022-07-26T20:22:09.252Z,99238.34
2022-07-26T20:24:38.245Z,99241.38
2022-07-26T20:27:07.020Z,99245.03
2022-07-26T20:29:35.025Z,99238.97
2022-07-26T20:32:02.656Z,99249.59
2022-07-26T20:34:30.196Z,99252.81
2022-07-26T20:36:58.200Z,99254.13
2022-07-26T20:39:27.803Z,99256.00
2022-07-26T20:41:55.427Z,99259.25
2022-07-26T20:44:28.139Z,99260.91
2022-07-26T20:46:56.248Z,99257.41
2022-07-26T20:49:24.150Z,99253.09
2022-07-26T20:51:51.865Z,99259.91
2022-07-26T20:54:19.411Z,99254.50
2022-07-26T20:56:47.217Z,99261.97
2022-07-26T20:59:15.267Z,99263.09
2022-07-26T21:01:44.013Z,99259.81
2022-07-26T21:04:12.112Z,99261.84
2022-07-26T21:06:39.661Z,99250.94
2022-07-26T21:09:08.886Z,99265.91
2022-07-26T21:11:38.827Z,99261.63
2022-07-26T21:14:06.711Z,99258.06
2022-07-26T21:16:34.319Z,99259.50
2022-07-26T21:19:02.942Z,99263.41
2022-07-26T21:21:30.712Z,99266.78
2022-07-26T21:23:58.239Z,99261.44
2022-07-26T21:26:26.059Z,99261.03
2022-07-26T21:28:53.626Z,99267.69
2022-07-26T21:31:21.331Z,99271.16
2022-07-26T21:33:49.137Z,99276.75
2022-07-26T21:36:16.829Z,99268.16
2022-07-26T21:38:44.396Z,99272.25
2022-07-26T21:41:13.405Z,99274.88
2022-07-26T21:43:41.805Z,99284.81
2022-07-26T21:46:12.800Z,99282.53
2022-07-26T21:48:41.284Z,99290.81
2022-07-26T21:51:08.901Z,99280.44
2022-07-26T21:53:36.483Z,99277.09
2022-07-26T21:56:05.657Z,99287.16
2022-07-26T21:58:36.645Z,99293.16
2022-07-26T22:01:10.934Z,99296.25
2022-07-26T22:03:40.189Z,99294.41
2022-07-26T22:06:08.264Z,99290.09
2022-07-26T22:08:36.217Z,99292.13
2022-07-26T22:11:04.197Z,99302.94
2022-07-26T22:13:32.016Z,99293.03
2022-07-26T22:15:59.670Z,99288.22
2022-07-26T22:18:27.665Z,99292.00
2022-07-26T22:20:55.724Z,99288.00
2022-07-26T22:23:23.456Z,99296.38
2022-07-26T22:25:51.251Z,99293.53
2022-07-26T22:28:19.003Z,99300.28
2022-07-26T22:30:47.366Z,99293.38
2022-07-26T22:33:15.329Z,99297.38
2022-07-26T22:35:42.824Z,99289.84
2022-07-26T22:38:11.133Z,99297.41
2022-07-26T22:40:40.364Z,99299.69
2022-07-26T22:43:08.430Z,99309.19
2022-07-26T22:45:36.692Z,99307.34
2022-07-26T22:48:05.626Z,99308.00
2022-07-26T22:50:33.806Z,99304.34
2022-07-26T22:53:01.794Z,99306.19
2022-07-26T22:55:29.932Z,99307.66
2022-07-26T22:57:57.668Z,99315.13
2022-07-26T23:00:25.364Z,99309.63
2022-07-26T23:02:53.376Z,99314.94
2022-07-26T23:05:21.673Z,99312.25
2022-07-26T23:08:18.359Z,99312.38
2022-07-26T23:10:52.878Z,99317.28
2022-07-26T23:13:21.289Z,99313.13
2022-07-26T23:15:53.548Z,99322.06
2022-07-26T23:18:24.173Z,99316.28
2022-07-26T23:20:51.725Z,99313.63
2022-07-26T23:23:19.305Z,99312.09
2022-07-26T23:25:47.663Z,99306.41
2022-07-26T23:28:35.222Z,99306.09
2022-07-26T23:31:07.756Z,99306.63
2022-07-26T23:33:51.584Z,99309.78
2022-07-26T23:36:25.816Z,99300.50
2022-07-26T23:38:57.850Z,99315.28
2022-07-26T23:41:26.658Z,99307.50
2022-07-26T23:43:54.604Z,99321.84
2022-07-26T23:46:22.981Z,99322.56
2022-07-26T23:48:51.356Z,99330.56
2022-07-26T23:51:19.604Z,99324.06
2022-07-26T23:53:47.272Z,99326.00
2022-07-26T23:56:15.638Z,99332.16
2022-07-26T23:58:43.416Z,99324.97
